0A9 weather

Elizabethton Municipal Airport
Elizabethton, Tennessee, United States

Public forecast

Using degrees Fahrenheit for public forecast. Weather courtesy of forecast.io.

Current aviation weather report (METAR) for Elizabethton Municipal Airport

Retrieved 2020/01/29 10:35 UTC (2 minutes ago):

K0A9 291035Z AUTO 00000KT 10SM OVC038 01/00 A3002 RMK AO2

Closest aviation forecast (TAF) to Elizabethton Municipal Airport

Forecast is more than 6 hours old.

Closest forecast is Tri-Cities Regional TN/VA Airport, 12.9 nm (23.9 km) WNW. Retrieved 2020-01-29 00:22 UTC (10 hours ago):

TAF KTRI 282320Z 2900/2924 VRB03KT P6SM BKN040 FM291800 VRB03KT P6SM OVC035